Lapis Arrow — C6VH5 — position and weather

sailwx.info

Track history (hours):
 
Tides and Currents Weather Stations Pressure Air Temp Water Temp Dewpoint Dewpoint Depression Visibility Wind Speed Wind Dir Waves Ship Positions

Lapis Arrow

Last reported at 2015-Mar-30 00:32 UTC. Time now 2015-Mar-30 01:05 UTC.
Position N 35°27' E 139°41'.

Length 176 m; draft 7.3 m.

Type: Cargo ship. MMSI: 308800800.

Date/timePositionNaut miles runAvg speedWind from/ knotsBaromVisibWave heightAir tempDewpointWater temp
2015-Mar-30 00:32N 35°27' E 139°41'0 0.0
2015-Mar-29 23:29N 35°27' E 139°41'0 0.0
2015-Mar-29 22:32N 35°27' E 139°41'1 1.4
2015-Mar-29 21:34N 35°26' E 139°42'9 8.6
2015-Mar-29 20:34N 35°18' E 139°45'1110.6
2015-Mar-29 19:34N 35°07' E 139°45'1111.5
2015-Mar-29 18:33N 34°56' E 139°42'242 7.7
2015-Mar-28 11:11N 33°54' E 134°58'1117.4
2015-Mar-28 10:33N 34°05' E 134°57'1615.5
2015-Mar-28 09:33N 34°21' E 134°59'1514.9
2015-Mar-28 08:33N 34°34' E 135°06'1110.5
2015-Mar-28 07:33N 34°37' E 134°54'6 0.8
2015-Mar-27 23:25N 34°43' E 134°51'3 3.2
2015-Mar-27 22:33N 34°41' E 134°49'1 0.7
2015-Mar-27 21:08N 34°40' E 134°48'0 0.0
2015-Mar-27 12:19N 34°40' E 134°48'0 0.0
2015-Mar-27 10:13N 34°40' E 134°48'0 0.0
2015-Mar-27 09:24N 34°40' E 134°48'202 4.9
2015-Mar-25 16:26N 34°03' E 130°47'27 1.3
2015-Mar-24 20:09N 34°05' E 130°15'  
Track history (hours):
 
Tides and Currents Weather Stations Pressure Air Temp Water Temp Dewpoint Dewpoint Depression Visibility Wind Speed Wind Dir Waves Ship Positions

Lapis Arrow

Last reported at 2015-Mar-30 00:32 UTC. Time now 2015-Mar-30 01:05 UTC.
Position N 35°27' E 139°41'.

Length 176 m; draft 7.3 m.

Type: Cargo ship. MMSI: 308800800.

Date/timePositionNaut miles runAvg speedWind from/ knotsBaromVisibWave heightAir tempDewpointWater temp
2015-Mar-30 00:32N 35°27' E 139°41'0 0.0
2015-Mar-29 23:29N 35°27' E 139°41'0 0.0
2015-Mar-29 22:32N 35°27' E 139°41'1 1.4
2015-Mar-29 21:34N 35°26' E 139°42'9 8.6
2015-Mar-29 20:34N 35°18' E 139°45'1110.6
2015-Mar-29 19:34N 35°07' E 139°45'1111.5
2015-Mar-29 18:33N 34°56' E 139°42'242 7.7
2015-Mar-28 11:11N 33°54' E 134°58'1117.4
2015-Mar-28 10:33N 34°05' E 134°57'1615.5
2015-Mar-28 09:33N 34°21' E 134°59'1514.9
2015-Mar-28 08:33N 34°34' E 135°06'1110.5
2015-Mar-28 07:33N 34°37' E 134°54'6 0.8
2015-Mar-27 23:25N 34°43' E 134°51'3 3.2
2015-Mar-27 22:33N 34°41' E 134°49'1 0.7
2015-Mar-27 21:08N 34°40' E 134°48'0 0.0
2015-Mar-27 12:19N 34°40' E 134°48'0 0.0
2015-Mar-27 10:13N 34°40' E 134°48'0 0.0
2015-Mar-27 09:24N 34°40' E 134°48'202 4.9
2015-Mar-25 16:26N 34°03' E 130°47'27 1.3
2015-Mar-24 20:09N 34°05' E 130°15'  

Dump ship's entire track history